Ahtanum, Washington
Current Conditions -  °F | °C
As of 8:29 AM on Sunday 25 Jan 2015 (Local Time) from KYKM Reporting Station
Moderate Fog Moderate Fog  
Wind Chill: 34°   Ceiling: 100
Heat Index: 34°   Visibility: 0mi
Dew Point: 32°   Wind: 3mph
Humidity: 92%   Direction: 290°WNW
Pressure: 30.26"   Gusts: NA
Location:  46.5979°N, 120.534°W
Report Text: KYKM 251629Z 29003KT M1/4SM R27/0600V0700FT FG VV001 01/00 A3026 RMK AO2 T00110000
Loading
Personal Weather Stations






























Interactive Weather Map New forecast layout! Learn more

10-Day Weather Forecast

Advertisements
Track Severe Weather on mobile